AirNav   Air Wisconsin pilot careers
 
 617 users online  

M77 Howard County Airport
Nashville, Arkansas, USA


FAA INFORMATION EFFECTIVE 01 FEBRUARY 2018

Location

FAA Identifier: M77
Lat/Long: 33-59-49.9000N / 093-50-17.1000W
33-59.831667N / 093-50.285000W
33.9971944 / -93.8380833
(estimated)
Elevation: 553.1 ft. / 168.6 m (surveyed)
Variation: 02E (2010)
From city: 3 miles N of NASHVILLE, AR
Time zone: UTC -6 (UTC -5 during Daylight Saving Time)
Zip code: 71852

Airport Operations

Airport use: Open to the public
Activation date: 03/1969
Control tower: no
ARTCC: FORT WORTH CENTER
FSS: JONESBORO FLIGHT SERVICE STATION
NOTAMs facility: JBR (NOTAM-D service available)
Attendance: UNATNDD
Wind indicator: lighted
Segmented circle: no
Lights: ACTVT MIRL RWY 01/19 & PAPI RWYS 01 & 19 - CTAF.
Beacon: white-green (lighted land airport)
Operates sunset to sunrise.

Airport Communications

CTAF: 122.9
  • APCH/DEP SERVICE PROVIDED BY FORT WORTH ARTCC ON FREQS 123.925/269.475 (TEXARKANA RCAG).

Nearby radio navigation aids

VOR radial/distance  VOR name  Freq  Var
TXKr015/31.3TEXARKANA VORTAC116.3007E

 
NDB name  Hdg/Dist  Freq  Var  ID
HOPE328/19.236203EHPC .... .--. -.-.

Airport Services

Parking: tiedowns
Airframe service: NONE
Powerplant service: NONE
Bottled oxygen: NONE
Bulk oxygen: NONE

Runway Information

Runway 1/19

Dimensions: 3994 x 75 ft. / 1217 x 23 m
Surface: asphalt, in good condition
Weight bearing capacity: 
Single wheel: 8.0
Runway edge lights: medium intensity
RUNWAY 1  RUNWAY 19
Latitude: 33-59.510368N34-00.154427N
Longitude: 093-50.366967W093-50.202617W
Elevation: 528.5 ft.549.6 ft.
Gradient: 0.5% UP0.7%
Traffic pattern: leftleft
Runway heading: 010 magnetic, 012 true190 magnetic, 192 true
Displaced threshold: 115 ft.no
Markings: nonprecision, in good conditionnonprecision, in good condition
Visual slope indicator: 2-light PAPI on left (3.00 degrees glide path)2-light PAPI on left (3.00 degrees glide path)
Touchdown point: yes, no lightsyes, no lights
Obstructions: 40 ft. trees, 1650 ft. from runway, 525 ft. right of centerline, 36:1 slope to clear
+5 FT FENCE 183 FT FROM RY END.
15 ft. trees, 500 ft. from runway, 95 ft. left of centerline, 20:1 slope to clear

Airport Ownership and Management from official FAA records

Ownership: Publicly-owned
Owner: HOWARD COUNTY
421 N. MAIN
NASHVILLE, AR 71852
Phone 870-845-7500
Manager: KEVIN SMITH
421 N MAIN
NASHVILLE, AR 71852
Phone 870-845-7500
HOWARD COUNTY JUDGE.

Airport Operational Statistics

Aircraft based on the field: 2
Single engine airplanes: 1
Multi engine airplanes: 1
    
Aircraft operations: avg 115/week *
58% local general aviation
33% transient general aviation
8% military
* for 12-month period ending 31 July 2016

Additional Remarks

RY 01 FENCE 3 FT AND ROAD 7 FT BELOW THLD 200 FT FM RY END.
RY 19 TURNAROUND HAS A 10 FT DROP OFF.

Instrument Procedures

NOTE: All procedures below are presented as PDF files. If you need a reader for these files, you should download the free Adobe Reader.

NOT FOR NAVIGATION. Please procure official charts for flight.
FAA instrument procedures published for use between 1 February 2018 at 0901Z and 1 March 2018 at 0900Z.

 
IAPs - Instrument Approach Procedures
RNAV (GPS) RWY 01   download (175KB)
RNAV (GPS) RWY 19   download (184KB)
NOTE: Special Take-Off Minimums/Departure Procedures apply   download (131KB)

Other nearby airports with instrument procedures:

M18 - Hope Municipal Airport (19 nm SE)
KDEQ - J Lynn Helms Sevier County Airport (28 nm W)
KTXK - Texarkana Regional Airport-Webb Field (33 nm S)
KMEZ - Mena Intermountain Municipal Airport (38 nm NW)
KADF - Dexter B Florence Memorial Field Airport (39 nm E)
 
Loc | Ops | Rwys | IFR | FBO | Links
Com | Nav | Svcs | Stats | Notes

Fly Arkansas
AirBoss

 
Area around M77 (Howard County Airport)
 
Road maps at: MapQuest Bing Google
 
Aerial photo
WARNING: Photo may not be current or correct
Aerial photo of M77 (Howard County Airport)
Photo courtesy of the Arkansas Department of Aeronautics
Taken in the Spring of 2007

Do you have a better or more recent aerial photo of Howard County Airport that you would like to share? If so, please send us your photo.

 
Sectional chart

 
Airport distance calculator
Flying to Howard County Airport? Find the distance to fly.

From to M77

Sunrise and sunset
Times for 21-Feb-2018
 Local
(UTC-6)
 Zulu
(UTC)
Morning civil twilight06:2912:29
Sunrise06:5512:55
Sunset18:0400:04
Evening civil twilight18:2900:29

Current date and time
Zulu (UTC)  22-Feb-2018 05:04:45
Local (UTC-6)  21-Feb-2018 23:04:45
 
METAR
KDEQ 
28nm W 
220453Z AUTO 10008KT 10SM CLR 09/08 A3019 RMK AO2 RAE20 SLP221 T00890083 PNO $
KTXK 
34nm S 
220453Z AUTO 07011G18KT 10SM -RA SCT007 BKN100 OVC110 08/08 A3018 RMK AO2 SLP218 P0004 T00830078
KMWT 
35nm N 
220453Z AUTO VRB04KT 10SM -RA FEW006 BKN037 OVC090 06/06 A3019 RMK AO2 SLP228 P0005 T00610061
KMEZ 
38nm NW 
220455Z AUTO 07004KT 10SM OVC008 A3023 RMK AO2
KADF 
39nm E 
220456Z AUTO 04008G15KT 10SM -RA FEW046 BKN110 07/06 A3030 RMK AO2 SLP265 P0003 T00670061
KHOT 
47nm NE 
220453Z AUTO 10007KT 8SM RA OVC100 06/06 A3029 RMK AO2 SLP256 P0002 T00610061
TAF
KTXK 
34nm S 
220302Z 2203/2224 04011KT 5SM SHRA BR FEW006 BKN050 OVC080 TEMPO 2204/2208 3SM SHRA BR OVC005 FM220900 05006KT 5SM BR VCSH OVC003 TEMPO 2209/2213 3SM SHRA BR OVC003 FM221300 08005KT 3SM SHRA BR OVC005
KADF 
39nm E 
220329Z 2203/2224 01009KT P6SM -RA SCT009 BKN023 OVC060 WS020/05045KT FM221000 03006KT 6SM BR BKN005 OVC015 FM221400 04010KT 5SM -RA BR BKN005 OVC015
NOTAMs
Click for the latest NOTAMs
NOTAMs are issued by the DoD/FAA and will open in a separate window not controlled by AirNav.

 

 
 

Would you like to see your business listed on this page?

 If your business provides an interesting product or service to pilots, flight crews, aircraft, or users of the Howard County Airport, you should consider listing it here.  To start the listing process, click on the button below
 
Add a business
 

Other Pages about Howard County Airport

Update a link
 
Copyright © AirNav, LLC. All rights reserved. Privacy Policy  Contact